createdAt,value
2023-01-12T00:01:54.754Z,9.09
2023-01-12T00:04:21.717Z,9.07
2023-01-12T00:06:48.890Z,8.82
2023-01-12T00:09:16.061Z,8.82
2023-01-12T00:11:43.354Z,9.02
2023-01-12T00:14:10.459Z,9.07
2023-01-12T00:16:38.278Z,9.28
2023-01-12T00:19:13.428Z,9.20
2023-01-12T00:22:13.533Z,9.14
2023-01-12T00:24:44.059Z,9.07
2023-01-12T00:27:14.702Z,8.59
2023-01-12T00:29:42.327Z,8.92
2023-01-12T00:32:16.495Z,8.89
2023-01-12T00:34:45.300Z,8.83
2023-01-12T00:37:13.029Z,9.10
2023-01-12T00:39:42.890Z,8.75
2023-01-12T00:42:32.068Z,8.97
2023-01-12T00:45:17.794Z,8.91
2023-01-12T00:47:44.513Z,8.80
2023-01-12T00:50:11.413Z,8.70
2023-01-12T00:52:38.238Z,8.67
2023-01-12T00:55:05.579Z,8.62
2023-01-12T00:57:32.618Z,8.91
2023-01-12T01:00:00.412Z,8.82
2023-01-12T01:02:28.626Z,8.95
2023-01-12T01:04:56.156Z,8.84
2023-01-12T01:07:23.179Z,9.13
2023-01-12T01:09:50.938Z,8.74
2023-01-12T01:12:17.970Z,8.84
2023-01-12T01:14:44.909Z,8.77
2023-01-12T01:17:11.753Z,8.77
2023-01-12T01:19:38.724Z,8.96
2023-01-12T01:22:05.556Z,9.01
2023-01-12T01:24:32.515Z,8.89
2023-01-12T01:26:59.537Z,8.93
2023-01-12T01:29:26.496Z,9.05
2023-01-12T01:31:55.587Z,9.06
2023-01-12T01:34:24.057Z,8.79
2023-01-12T01:36:51.017Z,8.84
2023-01-12T01:39:17.875Z,9.12
2023-01-12T01:41:44.780Z,8.91
2023-01-12T01:44:29.657Z,8.94
2023-01-12T01:47:01.349Z,9.08
2023-01-12T01:49:31.059Z,9.11
2023-01-12T01:52:06.400Z,8.81
2023-01-12T01:54:35.682Z,8.89
2023-01-12T01:57:03.185Z,8.81
2023-01-12T01:59:34.898Z,8.37
2023-01-12T02:02:02.949Z,9.15
2023-01-12T02:04:31.086Z,9.10
2023-01-12T02:07:00.551Z,9.07
2023-01-12T02:09:28.288Z,9.69
2023-01-12T02:12:14.717Z,9.03
2023-01-12T02:15:01.778Z,9.31
2023-01-12T02:17:47.018Z,8.90
2023-01-12T02:20:38.245Z,8.69
2023-01-12T02:23:23.500Z,8.62
2023-01-12T02:26:24.218Z,8.72
2023-01-12T02:29:17.156Z,8.78
2023-01-12T02:31:57.214Z,8.67
2023-01-12T02:34:52.918Z,9.32
2023-01-12T02:37:44.829Z,8.97
2023-01-12T02:40:12.138Z,8.75
2023-01-12T02:42:42.851Z,9.15
2023-01-12T02:45:54.671Z,8.92
2023-01-12T02:48:38.015Z,8.98
2023-01-12T02:51:04.892Z,8.99
2023-01-12T02:53:49.121Z,8.92
2023-01-12T02:56:25.780Z,8.75
2023-01-12T02:58:56.939Z,8.36
2023-01-12T03:01:25.769Z,8.74
2023-01-12T03:03:56.219Z,8.52
2023-01-12T03:06:23.104Z,9.00
2023-01-12T03:08:51.898Z,9.87
2023-01-12T03:11:21.969Z,10.39
2023-01-12T03:13:52.332Z,9.16
2023-01-12T03:16:22.547Z,9.31
2023-01-12T03:18:53.023Z,9.70
2023-01-12T03:21:22.890Z,9.64
2023-01-12T03:23:56.179Z,9.64
2023-01-12T03:26:27.877Z,9.25
2023-01-12T03:29:02.401Z,9.53
2023-01-12T03:31:29.872Z,9.24
2023-01-12T03:33:57.296Z,9.12
2023-01-12T03:36:48.801Z,9.67
2023-01-12T03:39:40.812Z,9.45
2023-01-12T03:42:17.618Z,8.94
2023-01-12T03:45:21.345Z,9.27
2023-01-12T03:47:55.579Z,9.44
2023-01-12T03:50:28.942Z,9.98
2023-01-12T03:52:58.063Z,9.94
2023-01-12T03:55:30.053Z,9.99
2023-01-12T03:57:57.912Z,10.06
2023-01-12T04:00:27.208Z,10.43
2023-01-12T04:03:12.173Z,10.66
2023-01-12T04:05:41.993Z,10.09
2023-01-12T04:08:10.162Z,10.34
2023-01-12T04:10:37.178Z,10.53
2023-01-12T04:13:04.315Z,10.56
2023-01-12T04:15:31.280Z,10.66
2023-01-12T04:17:58.134Z,10.50
2023-01-12T04:20:25.046Z,10.34
2023-01-12T04:22:51.947Z,10.31
2023-01-12T04:25:23.052Z,10.23
2023-01-12T04:28:04.573Z,10.23
2023-01-12T04:30:33.358Z,10.44
2023-01-12T04:33:06.095Z,10.17
2023-01-12T04:35:32.975Z,9.67
2023-01-12T04:38:05.753Z,9.78
2023-01-12T04:40:32.668Z,9.77
2023-01-12T04:43:02.497Z,9.92
2023-01-12T04:45:31.892Z,9.10
2023-01-12T04:48:12.851Z,8.93
2023-01-12T04:50:41.131Z,8.96
2023-01-12T04:53:10.939Z,9.07
2023-01-12T04:55:40.230Z,8.76
2023-01-12T04:58:08.154Z,8.45
2023-01-12T05:00:35.803Z,8.61
2023-01-12T05:03:03.503Z,8.73
2023-01-12T05:05:32.842Z,8.60
2023-01-12T05:08:23.085Z,9.46
2023-01-12T05:10:51.313Z,9.71
2023-01-12T05:13:18.603Z,10.01
2023-01-12T05:15:45.466Z,9.09
2023-01-12T05:18:12.374Z,9.27
2023-01-12T05:20:39.317Z,8.75
2023-01-12T05:23:06.161Z,9.01
2023-01-12T05:25:33.854Z,9.12
2023-01-12T05:28:01.082Z,8.58
2023-01-12T05:30:31.579Z,7.93
2023-01-12T05:32:59.359Z,7.67
2023-01-12T05:35:26.206Z,7.99
2023-01-12T05:37:56.386Z,7.74
2023-01-12T05:40:23.386Z,8.03
2023-01-12T05:43:09.747Z,7.81
2023-01-12T05:45:36.850Z,7.81
2023-01-12T05:48:03.950Z,8.07
2023-01-12T05:50:30.960Z,7.78
2023-01-12T05:53:10.695Z,8.00
2023-01-12T05:55:38.441Z,7.80
2023-01-12T05:58:05.562Z,7.41
2023-01-12T06:00:32.464Z,7.28
2023-01-12T06:02:59.327Z,7.12
2023-01-12T06:05:26.448Z,7.20
2023-01-12T06:07:53.417Z,7.26
2023-01-12T06:10:20.329Z,6.92
2023-01-12T06:13:09.175Z,7.11
2023-01-12T06:15:38.134Z,7.21
2023-01-12T06:18:05.037Z,6.98
2023-01-12T06:20:32.222Z,7.15
2023-01-12T06:23:03.396Z,6.79
2023-01-12T06:25:30.772Z,6.57
2023-01-12T06:27:57.720Z,6.44
2023-01-12T06:30:25.007Z,6.08
2023-01-12T06:32:51.985Z,6.37
2023-01-12T06:35:19.941Z,6.57
2023-01-12T06:37:47.024Z,6.75
2023-01-12T06:40:14.171Z,6.86
2023-01-12T06:42:42.381Z,7.10
2023-01-12T06:45:10.676Z,6.96
2023-01-12T06:47:52.153Z,7.17
2023-01-12T06:50:19.364Z,6.87
2023-01-12T06:52:46.367Z,6.92
2023-01-12T06:55:13.367Z,6.79
2023-01-12T06:57:40.626Z,6.87
2023-01-12T07:00:08.640Z,7.33
2023-01-12T07:02:35.588Z,7.65
2023-01-12T07:05:02.534Z,7.41
2023-01-12T07:07:29.437Z,7.87
2023-01-12T07:09:56.458Z,8.07
2023-01-12T07:12:23.529Z,7.92
2023-01-12T07:14:50.520Z,7.29
2023-01-12T07:17:18.022Z,7.24
2023-01-12T07:19:44.861Z,7.55
2023-01-12T07:22:11.728Z,7.21
2023-01-12T07:24:38.685Z,7.87
2023-01-12T07:27:06.248Z,7.97
2023-01-12T07:29:33.260Z,7.07
2023-01-12T07:32:00.136Z,6.22
2023-01-12T07:34:27.038Z,6.49
2023-01-12T07:36:53.992Z,6.48
2023-01-12T07:39:20.849Z,6.77
2023-01-12T07:42:06.520Z,6.99
2023-01-12T07:44:33.457Z,6.58
2023-01-12T07:47:00.515Z,7.25
2023-01-12T07:49:27.872Z,7.16
2023-01-12T07:51:56.010Z,6.63
2023-01-12T07:54:23.493Z,5.90
2023-01-12T07:56:50.408Z,6.33
2023-01-12T07:59:17.907Z,6.40
2023-01-12T08:01:44.902Z,5.91
2023-01-12T08:04:11.868Z,5.69
2023-01-12T08:06:38.783Z,5.80
2023-01-12T08:09:05.799Z,6.09
2023-01-12T08:11:32.956Z,6.07
2023-01-12T08:14:01.549Z,6.29
2023-01-12T08:16:41.219Z,6.54
2023-01-12T08:19:18.550Z,6.82
2023-01-12T08:21:52.753Z,6.13
2023-01-12T08:24:26.191Z,6.73
2023-01-12T08:26:56.319Z,6.46
2023-01-12T08:29:34.521Z,6.41
2023-01-12T08:32:05.004Z,6.82
2023-01-12T08:34:40.852Z,6.38
2023-01-12T08:37:11.043Z,5.83
2023-01-12T08:39:39.057Z,5.77
2023-01-12T08:42:06.516Z,6.10
2023-01-12T08:44:35.283Z,6.21
2023-01-12T08:47:02.939Z,5.19
2023-01-12T08:49:31.400Z,5.02
2023-01-12T08:51:58.555Z,5.13
2023-01-12T08:54:25.677Z,5.32
2023-01-12T08:56:53.961Z,4.80
2023-01-12T08:59:20.858Z,4.86
2023-01-12T09:01:48.167Z,5.11
2023-01-12T09:04:15.332Z,5.12
2023-01-12T09:06:44.623Z,4.81
2023-01-12T09:09:14.806Z,4.68
2023-01-12T09:11:43.475Z,4.90
2023-01-12T09:14:12.136Z,5.04
2023-01-12T09:16:39.784Z,4.75
2023-01-12T09:19:07.323Z,4.46
2023-01-12T09:21:39.144Z,4.42
2023-01-12T09:24:06.879Z,4.51
2023-01-12T09:26:38.740Z,4.49
2023-01-12T09:29:08.033Z,4.37
2023-01-12T09:31:36.331Z,4.50
2023-01-12T09:34:03.573Z,4.68
2023-01-12T09:36:36.014Z,5.13
2023-01-12T09:39:04.372Z,5.28
2023-01-12T09:41:59.003Z,5.56
2023-01-12T09:44:47.151Z,5.63
2023-01-12T09:47:21.439Z,5.35
2023-01-12T09:50:04.627Z,5.14
2023-01-12T09:52:41.461Z,5.05
2023-01-12T09:55:20.633Z,5.11
2023-01-12T09:58:18.011Z,4.75
2023-01-12T10:00:54.639Z,4.39
2023-01-12T10:03:38.990Z,4.54
2023-01-12T10:06:09.493Z,4.87
2023-01-12T10:08:41.492Z,4.68
2023-01-12T10:11:27.027Z,4.69
2023-01-12T10:14:27.025Z,4.58
2023-01-12T10:17:18.284Z,5.11
2023-01-12T10:20:14.580Z,4.64
2023-01-12T10:22:49.840Z,4.33
2023-01-12T10:25:31.495Z,3.82
2023-01-12T10:28:00.481Z,3.62
2023-01-12T10:30:32.672Z,3.55
2023-01-12T10:33:14.658Z,4.05
2023-01-12T10:35:51.684Z,4.26
2023-01-12T10:38:29.214Z,4.24
2023-01-12T10:41:17.682Z,4.57
2023-01-12T10:44:16.741Z,4.45
2023-01-12T10:46:43.643Z,4.52
2023-01-12T10:49:19.290Z,4.57
2023-01-12T10:51:51.917Z,4.18
2023-01-12T10:54:22.327Z,4.02
2023-01-12T10:57:07.889Z,4.04
2023-01-12T10:59:39.222Z,4.21
2023-01-12T11:02:07.060Z,4.32
2023-01-12T11:04:45.123Z,4.24
2023-01-12T11:07:25.799Z,4.04
2023-01-12T11:09:54.857Z,4.48
2023-01-12T11:12:36.433Z,4.24
2023-01-12T11:15:12.651Z,3.84
2023-01-12T11:17:47.508Z,3.91
2023-01-12T11:20:22.751Z,3.90
2023-01-12T11:22:55.378Z,3.53
2023-01-12T11:25:28.327Z,3.48
2023-01-12T11:28:00.976Z,3.20
2023-01-12T11:30:38.155Z,3.46
2023-01-12T11:33:15.313Z,3.43
2023-01-12T11:35:50.187Z,3.07
2023-01-12T11:38:29.204Z,3.16
2023-01-12T11:40:58.579Z,3.00
2023-01-12T11:43:57.389Z,3.31
2023-01-12T11:46:30.053Z,3.29
2023-01-12T11:49:18.625Z,3.20
2023-01-12T11:51:49.362Z,3.25
2023-01-12T11:54:18.704Z,3.37
2023-01-12T11:57:00.239Z,3.31
2023-01-12T11:59:48.594Z,3.61
2023-01-12T12:02:47.545Z,3.57
2023-01-12T12:05:58.739Z,3.53
2023-01-12T12:08:46.885Z,3.44
2023-01-12T12:11:27.408Z,3.70
2023-01-12T12:14:15.943Z,3.18
2023-01-12T12:17:21.098Z,3.62
2023-01-12T12:19:56.810Z,3.41
2023-01-12T12:22:46.248Z,3.70
2023-01-12T12:25:22.134Z,4.16
2023-01-12T12:28:30.526Z,3.68
2023-01-12T12:31:29.237Z,3.37
2023-01-12T12:34:30.189Z,3.70
2023-01-12T12:37:05.361Z,3.56
2023-01-12T12:39:45.757Z,3.30
2023-01-12T12:42:55.328Z,3.06
2023-01-12T12:45:41.757Z,2.71
2023-01-12T12:48:27.733Z,2.65
2023-01-12T12:51:09.506Z,2.88
2023-01-12T12:53:41.694Z,2.90
2023-01-12T12:56:18.261Z,2.93
2023-01-12T12:58:45.177Z,3.03
2023-01-12T13:01:21.458Z,2.96
2023-01-12T13:03:49.488Z,3.09
2023-01-12T13:06:45.952Z,2.79
2023-01-12T13:09:12.760Z,2.89
2023-01-12T13:11:50.398Z,2.94
2023-01-12T13:14:26.566Z,2.85
2023-01-12T13:16:56.404Z,2.84
2023-01-12T13:20:16.701Z,3.04
2023-01-12T13:22:51.731Z,3.27
2023-01-12T13:25:19.753Z,2.97
2023-01-12T13:28:01.607Z,2.93
2023-01-12T13:30:28.717Z,3.13
2023-01-12T13:33:14.861Z,3.09
2023-01-12T13:35:44.622Z,2.80
2023-01-12T13:38:33.416Z,2.76
2023-01-12T13:41:55.500Z,2.88
2023-01-12T13:44:37.782Z,2.63
2023-01-12T13:47:25.621Z,2.66
2023-01-12T13:49:59.057Z,2.78
2023-01-12T13:52:34.075Z,2.66
2023-01-12T13:55:01.565Z,2.83
2023-01-12T13:57:31.003Z,2.67
2023-01-12T14:00:11.059Z,2.41
2023-01-12T14:02:41.744Z,2.71
2023-01-12T14:05:14.483Z,2.73
2023-01-12T14:08:06.272Z,2.61
2023-01-12T14:11:00.030Z,2.79
2023-01-12T14:13:48.389Z,2.60
2023-01-12T14:16:35.658Z,2.61
2023-01-12T14:19:03.243Z,2.72
2023-01-12T14:21:33.450Z,2.81
2023-01-12T14:24:25.039Z,2.87
2023-01-12T14:26:52.105Z,2.85
2023-01-12T14:29:19.347Z,2.92
2023-01-12T14:31:54.264Z,2.96
2023-01-12T14:34:32.840Z,2.80
2023-01-12T14:37:00.753Z,3.15
2023-01-12T14:39:31.201Z,2.73
2023-01-12T14:42:17.175Z,2.66
2023-01-12T14:45:10.480Z,2.48
2023-01-12T14:47:38.899Z,2.53
2023-01-12T14:50:16.835Z,2.82
2023-01-12T14:52:46.578Z,2.65
2023-01-12T14:55:25.714Z,2.61
2023-01-12T14:58:01.565Z,2.67
2023-01-12T15:00:31.948Z,2.70
2023-01-12T15:03:01.041Z,2.63
2023-01-12T15:05:30.540Z,2.91
2023-01-12T15:08:01.438Z,3.08
2023-01-12T15:10:41.011Z,2.69
2023-01-12T15:13:28.332Z,2.79
2023-01-12T15:16:15.590Z,2.64
2023-01-12T15:19:01.031Z,2.77
2023-01-12T15:21:48.225Z,2.65
2023-01-12T15:24:33.378Z,2.67
2023-01-12T15:27:06.327Z,2.72
2023-01-12T15:29:34.227Z,2.78
2023-01-12T15:32:02.463Z,2.59
2023-01-12T15:34:29.894Z,2.73
2023-01-12T15:36:56.840Z,2.73
2023-01-12T15:39:23.720Z,2.58
2023-01-12T15:42:09.384Z,2.58
2023-01-12T15:44:38.302Z,2.63
2023-01-12T15:47:07.438Z,2.82
2023-01-12T15:49:34.451Z,2.62
2023-01-12T15:52:01.487Z,2.55
2023-01-12T15:54:28.406Z,2.60
2023-01-12T15:56:57.452Z,2.71
2023-01-12T15:59:24.369Z,2.62
2023-01-12T16:01:51.529Z,2.54
2023-01-12T16:04:42.148Z,2.57
2023-01-12T16:07:09.593Z,2.47
2023-01-12T16:09:36.639Z,2.62
2023-01-12T16:12:03.678Z,2.99
2023-01-12T16:14:30.714Z,2.68
2023-01-12T16:16:57.623Z,2.73
2023-01-12T16:19:24.588Z,2.75
2023-01-12T16:21:55.349Z,2.71
2023-01-12T16:24:26.779Z,2.54
2023-01-12T16:26:53.956Z,2.45
2023-01-12T16:29:22.252Z,2.47
2023-01-12T16:31:49.422Z,2.47
2023-01-12T16:34:18.375Z,2.52
2023-01-12T16:36:45.311Z,2.33
2023-01-12T16:39:13.092Z,2.47
2023-01-12T16:41:40.301Z,2.66
2023-01-12T16:44:07.187Z,2.95
2023-01-12T16:46:34.071Z,2.99
2023-01-12T16:49:04.336Z,3.00
2023-01-12T16:51:33.188Z,2.79
2023-01-12T16:54:02.757Z,2.79
2023-01-12T16:56:29.931Z,2.91
2023-01-12T16:58:58.035Z,3.27
2023-01-12T17:01:26.288Z,2.93
2023-01-12T17:03:57.888Z,2.90
2023-01-12T17:06:26.772Z,3.11
2023-01-12T17:08:53.989Z,2.98
2023-01-12T17:11:24.208Z,2.81
2023-01-12T17:13:53.388Z,2.75
2023-01-12T17:16:21.323Z,3.00
2023-01-12T17:18:51.687Z,2.87
2023-01-12T17:21:19.759Z,3.06
2023-01-12T17:23:47.678Z,2.93
2023-01-12T17:26:18.046Z,3.03
2023-01-12T17:28:46.384Z,3.37
2023-01-12T17:31:18.888Z,3.30
2023-01-12T17:33:46.640Z,3.18
2023-01-12T17:36:14.286Z,3.07
2023-01-12T17:38:41.304Z,3.43
2023-01-12T17:41:33.640Z,3.44
2023-01-12T17:44:02.366Z,3.15
2023-01-12T17:46:30.216Z,3.10
2023-01-12T17:49:02.336Z,3.00
2023-01-12T17:51:29.493Z,3.51
2023-01-12T17:53:57.550Z,3.18
2023-01-12T17:56:26.169Z,3.14
2023-01-12T17:58:54.313Z,3.56
2023-01-12T18:01:23.411Z,3.77
2023-01-12T18:03:50.588Z,3.52
2023-01-12T18:06:25.891Z,3.75
2023-01-12T18:08:56.558Z,3.28
2023-01-12T18:11:24.416Z,2.99
2023-01-12T18:13:53.071Z,2.88
2023-01-12T18:16:20.643Z,2.96
2023-01-12T18:18:47.861Z,3.01
2023-01-12T18:21:18.637Z,2.91
2023-01-12T18:23:45.776Z,2.95
2023-01-12T18:26:16.124Z,3.02
2023-01-12T18:28:43.690Z,2.94
2023-01-12T18:31:14.589Z,2.71
2023-01-12T18:33:42.215Z,2.85
2023-01-12T18:36:15.882Z,2.87
2023-01-12T18:38:42.830Z,3.14
2023-01-12T18:41:28.510Z,2.83
2023-01-12T18:43:57.503Z,2.73
2023-01-12T18:46:44.954Z,2.85
2023-01-12T18:49:11.961Z,3.01
2023-01-12T18:51:57.425Z,3.35
2023-01-12T18:54:24.459Z,3.01
2023-01-12T18:56:51.846Z,3.13
2023-01-12T18:59:18.858Z,2.92
2023-01-12T19:01:46.898Z,2.90
2023-01-12T19:04:15.605Z,2.91
2023-01-12T19:06:47.861Z,3.15
2023-01-12T19:09:33.523Z,3.01
2023-01-12T19:12:01.657Z,3.04
2023-01-12T19:14:47.407Z,3.16
2023-01-12T19:17:33.096Z,3.27
2023-01-12T19:20:06.550Z,2.90
2023-01-12T19:22:52.740Z,2.67
2023-01-12T19:25:40.662Z,2.84
2023-01-12T19:28:30.167Z,2.73
2023-01-12T19:31:02.427Z,3.04
2023-01-12T19:33:30.264Z,2.80
2023-01-12T19:35:57.191Z,2.80
2023-01-12T19:38:24.137Z,2.67
2023-01-12T19:40:54.746Z,2.63
2023-01-12T19:43:26.441Z,2.63
2023-01-12T19:45:58.884Z,2.82
2023-01-12T19:48:27.222Z,2.64
2023-01-12T19:50:54.586Z,2.63
2023-01-12T19:53:26.004Z,2.75
2023-01-12T19:55:53.200Z,3.39
2023-01-12T19:58:22.407Z,3.24
2023-01-12T20:00:50.065Z,3.22
2023-01-12T20:03:20.485Z,2.70
2023-01-12T20:05:52.919Z,2.80
2023-01-12T20:08:22.214Z,2.78
2023-01-12T20:10:57.790Z,2.78
2023-01-12T20:13:25.947Z,2.71
2023-01-12T20:15:54.252Z,2.61
2023-01-12T20:18:21.546Z,2.75
2023-01-12T20:20:48.582Z,3.06
2023-01-12T20:23:16.418Z,2.94
2023-01-12T20:25:44.963Z,2.86
2023-01-12T20:28:13.790Z,2.88
2023-01-12T20:30:42.772Z,2.79
2023-01-12T20:33:10.381Z,2.82
2023-01-12T20:35:40.781Z,2.72
2023-01-12T20:38:13.346Z,2.89
2023-01-12T20:40:40.775Z,2.52
2023-01-12T20:43:07.699Z,2.71
2023-01-12T20:45:34.610Z,2.95
2023-01-12T20:48:01.747Z,2.82
2023-01-12T20:50:28.738Z,2.79
2023-01-12T20:52:55.597Z,3.25
2023-01-12T20:55:22.539Z,3.29
2023-01-12T20:57:49.531Z,3.07
2023-01-12T21:00:17.447Z,2.71
2023-01-12T21:02:44.352Z,2.90
2023-01-12T21:05:11.305Z,2.72
2023-01-12T21:07:38.275Z,3.13
2023-01-12T21:10:07.323Z,2.87
2023-01-12T21:12:34.434Z,2.73
2023-01-12T21:15:01.329Z,2.65
2023-01-12T21:17:28.187Z,2.68
2023-01-12T21:19:55.062Z,2.36
2023-01-12T21:22:22.210Z,2.67
2023-01-12T21:24:50.411Z,2.65
2023-01-12T21:27:17.393Z,3.02
2023-01-12T21:29:46.033Z,2.56
2023-01-12T21:32:13.093Z,2.97
2023-01-12T21:34:39.942Z,2.78
2023-01-12T21:37:07.766Z,2.85
2023-01-12T21:39:34.650Z,3.01
2023-01-12T21:42:20.131Z,3.03
2023-01-12T21:44:47.035Z,2.79
2023-01-12T21:47:14.062Z,2.84
2023-01-12T21:49:41.197Z,2.85
2023-01-12T21:52:08.097Z,2.81
2023-01-12T21:54:35.018Z,2.64
2023-01-12T21:57:02.016Z,2.49
2023-01-12T21:59:28.990Z,2.70
2023-01-12T22:01:55.950Z,2.83
2023-01-12T22:04:23.609Z,2.51
2023-01-12T22:06:51.367Z,2.57
2023-01-12T22:09:18.572Z,2.71
2023-01-12T22:11:45.489Z,2.54
2023-01-12T22:14:12.336Z,2.29
2023-01-12T22:16:39.306Z,2.35
2023-01-12T22:19:06.252Z,2.44
2023-01-12T22:21:33.451Z,2.35
2023-01-12T22:24:00.552Z,2.62
2023-01-12T22:26:29.813Z,2.44
2023-01-12T22:28:56.692Z,2.61
2023-01-12T22:31:25.529Z,2.46
2023-01-12T22:34:07.163Z,2.66
2023-01-12T22:36:43.070Z,2.62
2023-01-12T22:39:13.500Z,2.79
2023-01-12T22:41:40.942Z,2.64
2023-01-12T22:44:07.958Z,2.78
2023-01-12T22:46:35.589Z,2.92
2023-01-12T22:49:02.495Z,2.59
2023-01-12T22:51:29.821Z,2.63
2023-01-12T22:53:57.817Z,2.80
2023-01-12T22:56:25.575Z,2.33
2023-01-12T22:58:55.208Z,2.51
2023-01-12T23:01:27.949Z,2.57
2023-01-12T23:03:58.566Z,2.49
2023-01-12T23:06:25.963Z,2.43
2023-01-12T23:08:52.919Z,2.43
2023-01-12T23:11:26.222Z,2.52
2023-01-12T23:13:54.985Z,2.53
2023-01-12T23:16:22.089Z,2.69
2023-01-12T23:18:50.436Z,2.54
2023-01-12T23:21:20.352Z,2.83
2023-01-12T23:23:52.560Z,2.53
2023-01-12T23:26:22.717Z,2.54
2023-01-12T23:28:52.584Z,2.79
2023-01-12T23:31:22.875Z,2.58
2023-01-12T23:33:50.504Z,2.70
2023-01-12T23:36:22.866Z,2.70
2023-01-12T23:38:58.129Z,2.48
2023-01-12T23:41:26.887Z,2.70
2023-01-12T23:43:59.536Z,2.57
2023-01-12T23:46:28.382Z,2.54
2023-01-12T23:48:58.446Z,2.56
2023-01-12T23:51:27.711Z,2.63
2023-01-12T23:53:59.925Z,2.63
2023-01-12T23:56:28.424Z,2.72
2023-01-12T23:58:55.790Z,2.49
